VOZ1530 YSSY-YMHB
Flight info
| Callsign | VOZ1530 |
|---|---|
| Flight time | 1h 30m |
| Altitude | 38000 |
| Route | WOL H20 MOTRA/N0359F200 W407 TASUM |
| Aircraft | B738/M-SAE3DGHIM1RWZ/LB1 |
Departure
| Time | 2026-04-26 02:09 |
|---|---|
| Airport | Sydney Kingsford Smith International Airport (YSSY) |
Arrival
| Time | 2026-04-26 03:40 |
|---|---|
| Airport | Hobart International Airport (YMHB) |
| Time | Latitude | Longitude | Altitude | Speed | Heading |
|---|---|---|---|---|---|
| 2026-04-26 01:24 | -33.93625 | 151.17891 | 29 ft | 0 kts | 99° |
| 2026-04-26 01:53 | -33.93624 | 151.17888 | 29 ft | 3 kts | 99° |
| 2026-04-26 01:53 | -33.93621 | 151.17862 | 29 ft | 3 kts | 99° |
| 2026-04-26 01:54 | -33.93616 | 151.17836 | 29 ft | 3 kts | 117° |
| 2026-04-26 01:54 | -33.93607 | 151.17821 | 29 ft | 3 kts | 186° |
| 2026-04-26 01:54 | -33.93605 | 151.17822 | 29 ft | 1 kts | 190° |
| 2026-04-26 01:58 | -33.93605 | 151.17821 | 29 ft | 0 kts | 190° |
| 2026-04-26 01:58 | -33.93621 | 151.17818 | 29 ft | 5 kts | 191° |
| 2026-04-26 01:58 | -33.93671 | 151.17805 | 29 ft | 10 kts | 193° |
| 2026-04-26 01:58 | -33.93759 | 151.17777 | 29 ft | 15 kts | 194° |
| 2026-04-26 01:59 | -33.93862 | 151.17769 | 29 ft | 15 kts | 168° |
| 2026-04-26 01:59 | -33.93963 | 151.17795 | 28 ft | 16 kts | 166° |
| 2026-04-26 01:59 | -33.94090 | 151.17828 | 28 ft | 22 kts | 169° |
| 2026-04-26 01:59 | -33.94256 | 151.17872 | 29 ft | 26 kts | 167° |
| 2026-04-26 02:00 | -33.94432 | 151.17911 | 29 ft | 25 kts | 184° |
| 2026-04-26 02:00 | -33.94594 | 151.17900 | 29 ft | 23 kts | 167° |
| 2026-04-26 02:00 | -33.94750 | 151.17940 | 29 ft | 23 kts | 168° |
| 2026-04-26 02:00 | -33.94900 | 151.17979 | 29 ft | 22 kts | 168° |
| 2026-04-26 02:01 | -33.95045 | 151.18016 | 29 ft | 19 kts | 167° |
| 2026-04-26 02:01 | -33.95095 | 151.18135 | 29 ft | 18 kts | 78° |
| 2026-04-26 02:01 | -33.95077 | 151.18234 | 29 ft | 18 kts | 78° |
| 2026-04-26 02:01 | -33.95053 | 151.18367 | 29 ft | 12 kts | 78° |
| 2026-04-26 02:02 | -33.95045 | 151.18408 | 29 ft | 0 kts | 77° |
| 2026-04-26 02:05 | -33.95045 | 151.18412 | 29 ft | 2 kts | 77° |
| 2026-04-26 02:05 | -33.95039 | 151.18446 | 29 ft | 7 kts | 85° |
| 2026-04-26 02:05 | -33.95071 | 151.18506 | 29 ft | 11 kts | 150° |
| 2026-04-26 02:05 | -33.95147 | 151.18578 | 29 ft | 16 kts | 137° |
| 2026-04-26 02:06 | -33.95244 | 151.18680 | 29 ft | 21 kts | 146° |
| 2026-04-26 02:06 | -33.95392 | 151.18739 | 29 ft | 24 kts | 168° |
| 2026-04-26 02:06 | -33.95570 | 151.18786 | 29 ft | 28 kts | 168° |
| 2026-04-26 02:06 | -33.95769 | 151.18836 | 29 ft | 31 kts | 168° |
| 2026-04-26 02:07 | -33.95981 | 151.18892 | 29 ft | 31 kts | 168° |
| 2026-04-26 02:07 | -33.96186 | 151.18944 | 29 ft | 29 kts | 167° |
| 2026-04-26 02:07 | -33.96378 | 151.18995 | 29 ft | 27 kts | 168° |
| 2026-04-26 02:07 | -33.96559 | 151.19042 | 29 ft | 26 kts | 168° |
| 2026-04-26 02:08 | -33.96728 | 151.19073 | 29 ft | 24 kts | 186° |
| 2026-04-26 02:08 | -33.96887 | 151.19082 | 29 ft | 23 kts | 167° |
| 2026-04-26 02:08 | -33.97040 | 151.19121 | 29 ft | 22 kts | 167° |
| 2026-04-26 02:08 | -33.97119 | 151.19236 | 28 ft | 20 kts | 79° |
| 2026-04-26 02:09 | -33.97031 | 151.19364 | 24 ft | 31 kts | 356° |
| 2026-04-26 02:09 | -33.96600 | 151.19254 | 25 ft | 98 kts | 348° |
| 2026-04-26 02:09 | -33.95724 | 151.19019 | 111 ft | 151 kts | 345° |
| 2026-04-26 02:09 | -33.94648 | 151.18705 | 790 ft | 165 kts | 348° |
| 2026-04-26 02:10 | -33.93509 | 151.18817 | 1560 ft | 174 kts | 32° |
| 2026-04-26 02:10 | -33.92843 | 151.19933 | 2109 ft | 173 kts | 76° |
| 2026-04-26 02:10 | -33.92816 | 151.21391 | 2768 ft | 179 kts | 101° |
| 2026-04-26 02:10 | -33.93336 | 151.22793 | 3238 ft | 195 kts | 114° |
| 2026-04-26 02:11 | -33.93861 | 151.24283 | 3849 ft | 196 kts | 96° |
| 2026-04-26 02:11 | -33.93839 | 151.25996 | 4069 ft | 216 kts | 84° |
| 2026-04-26 02:11 | -33.93761 | 151.27891 | 4226 ft | 237 kts | 85° |
| 2026-04-26 02:11 | -33.93693 | 151.29968 | 4411 ft | 259 kts | 86° |
| 2026-04-26 02:12 | -33.93626 | 151.32172 | 4979 ft | 266 kts | 86° |
| 2026-04-26 02:12 | -33.93561 | 151.34413 | 5690 ft | 267 kts | 86° |
| 2026-04-26 02:12 | -33.93498 | 151.36647 | 6500 ft | 268 kts | 88° |
| 2026-04-26 02:12 | -33.93433 | 151.38913 | 7156 ft | 273 kts | 88° |
| 2026-04-26 02:13 | -33.93367 | 151.41215 | 7894 ft | 275 kts | 88° |
| 2026-04-26 02:13 | -33.93299 | 151.43524 | 8646 ft | 277 kts | 88° |
| 2026-04-26 02:13 | -33.93229 | 151.45865 | 9341 ft | 282 kts | 88° |
| 2026-04-26 02:13 | -33.93159 | 151.48246 | 10075 ft | 287 kts | 89° |
| 2026-04-26 02:14 | -33.93509 | 151.50600 | 10753 ft | 291 kts | 115° |
| 2026-04-26 02:14 | -33.94760 | 151.52513 | 11475 ft | 294 kts | 141° |
| 2026-04-26 02:14 | -33.96565 | 151.53677 | 12099 ft | 304 kts | 165° |
| 2026-04-26 02:14 | -33.98746 | 151.53746 | 12292 ft | 328 kts | 193° |
| 2026-04-26 02:15 | -34.00851 | 151.52606 | 12795 ft | 339 kts | 214° |
| 2026-04-26 02:15 | -34.02606 | 151.50685 | 13519 ft | 343 kts | 225° |
| 2026-04-26 02:15 | -34.04231 | 151.48560 | 14283 ft | 346 kts | 227° |
| 2026-04-26 02:15 | -34.05836 | 151.46371 | 14961 ft | 351 kts | 228° |
| 2026-04-26 02:16 | -34.07461 | 151.44140 | 15644 ft | 356 kts | 228° |
| 2026-04-26 02:16 | -34.09107 | 151.41893 | 16325 ft | 360 kts | 227° |
| 2026-04-26 02:16 | -34.10785 | 151.39621 | 17029 ft | 364 kts | 227° |
| 2026-04-26 02:16 | -34.12485 | 151.37332 | 17714 ft | 369 kts | 227° |
| 2026-04-26 02:17 | -34.14212 | 151.35016 | 18392 ft | 373 kts | 227° |
| 2026-04-26 02:17 | -34.15963 | 151.32676 | 19000 ft | 377 kts | 227° |
| 2026-04-26 02:17 | -34.17735 | 151.30308 | 19557 ft | 383 kts | 227° |
| 2026-04-26 02:17 | -34.19528 | 151.27914 | 20165 ft | 386 kts | 227° |
| 2026-04-26 02:18 | -34.21334 | 151.25500 | 20759 ft | 389 kts | 227° |
| 2026-04-26 02:18 | -34.23163 | 151.23055 | 21305 ft | 394 kts | 227° |
| 2026-04-26 02:18 | -34.25001 | 151.20595 | 21938 ft | 396 kts | 227° |
| 2026-04-26 02:18 | -34.26858 | 151.18109 | 22483 ft | 400 kts | 227° |
| 2026-04-26 02:19 | -34.28730 | 151.15601 | 23033 ft | 404 kts | 227° |
| 2026-04-26 02:19 | -34.30618 | 151.13070 | 23605 ft | 407 kts | 227° |
| 2026-04-26 02:19 | -34.32524 | 151.10512 | 24077 ft | 411 kts | 227° |
| 2026-04-26 02:19 | -34.34442 | 151.07936 | 24534 ft | 414 kts | 227° |
| 2026-04-26 02:20 | -34.36374 | 151.05339 | 25058 ft | 414 kts | 228° |
| 2026-04-26 02:20 | -34.38305 | 151.02741 | 25551 ft | 416 kts | 228° |
| 2026-04-26 02:20 | -34.40245 | 151.00129 | 26027 ft | 418 kts | 228° |
| 2026-04-26 02:20 | -34.42198 | 150.97498 | 26473 ft | 421 kts | 228° |
| 2026-04-26 02:21 | -34.44156 | 150.94858 | 26913 ft | 423 kts | 228° |
| 2026-04-26 02:21 | -34.46126 | 150.92199 | 27384 ft | 425 kts | 228° |
| 2026-04-26 02:21 | -34.48109 | 150.89519 | 27742 ft | 429 kts | 228° |
| 2026-04-26 02:21 | -34.50101 | 150.86824 | 28202 ft | 430 kts | 229° |
| 2026-04-26 02:22 | -34.52108 | 150.84108 | 28591 ft | 433 kts | 228° |
| 2026-04-26 02:22 | -34.54124 | 150.81382 | 28974 ft | 436 kts | 228° |
| 2026-04-26 02:22 | -34.56248 | 150.78765 | 29405 ft | 438 kts | 218° |
| 2026-04-26 02:22 | -34.58862 | 150.76854 | 29823 ft | 439 kts | 208° |
| 2026-04-26 02:23 | -34.61539 | 150.75157 | 30204 ft | 441 kts | 207° |
| 2026-04-26 02:23 | -34.64272 | 150.73424 | 30476 ft | 445 kts | 208° |
| 2026-04-26 02:23 | -34.67011 | 150.71666 | 30812 ft | 446 kts | 209° |
| 2026-04-26 02:23 | -34.69745 | 150.69883 | 31166 ft | 446 kts | 208° |
| 2026-04-26 02:24 | -34.72515 | 150.68057 | 31506 ft | 447 kts | 209° |
| 2026-04-26 02:24 | -34.75245 | 150.66246 | 31820 ft | 448 kts | 209° |
| 2026-04-26 02:24 | -34.77985 | 150.64424 | 32100 ft | 450 kts | 209° |
| 2026-04-26 02:24 | -34.80697 | 150.62617 | 32372 ft | 451 kts | 210° |
| 2026-04-26 02:25 | -34.83452 | 150.60779 | 32655 ft | 452 kts | 209° |
| 2026-04-26 02:25 | -34.86211 | 150.58939 | 33015 ft | 451 kts | 209° |
| 2026-04-26 02:25 | -34.88957 | 150.57107 | 33384 ft | 450 kts | 209° |
| 2026-04-26 02:25 | -34.91701 | 150.55278 | 33736 ft | 449 kts | 209° |
| 2026-04-26 02:26 | -34.94459 | 150.53504 | 34114 ft | 448 kts | 205° |
| 2026-04-26 02:26 | -34.97381 | 150.52186 | 34438 ft | 448 kts | 195° |
| 2026-04-26 02:26 | -35.00400 | 150.51271 | 34716 ft | 448 kts | 194° |
| 2026-04-26 02:26 | -35.03441 | 150.50404 | 34933 ft | 449 kts | 193° |
| 2026-04-26 02:27 | -35.06483 | 150.49546 | 35195 ft | 449 kts | 193° |
| 2026-04-26 02:27 | -35.09518 | 150.48685 | 35463 ft | 448 kts | 193° |
| 2026-04-26 02:27 | -35.12557 | 150.47807 | 35688 ft | 449 kts | 194° |
| 2026-04-26 02:27 | -35.15595 | 150.46919 | 35925 ft | 449 kts | 194° |
| 2026-04-26 02:28 | -35.18628 | 150.46021 | 36189 ft | 448 kts | 194° |
| 2026-04-26 02:28 | -35.21657 | 150.45121 | 36433 ft | 448 kts | 194° |
| 2026-04-26 02:28 | -35.24695 | 150.44216 | 36569 ft | 451 kts | 194° |
| 2026-04-26 02:28 | -35.27741 | 150.43305 | 36822 ft | 450 kts | 195° |
| 2026-04-26 02:29 | -35.30783 | 150.42395 | 37071 ft | 450 kts | 194° |
| 2026-04-26 02:29 | -35.33824 | 150.41482 | 37257 ft | 451 kts | 195° |
| 2026-04-26 02:29 | -35.36871 | 150.40567 | 37476 ft | 451 kts | 194° |
| 2026-04-26 02:29 | -35.39916 | 150.39654 | 37745 ft | 450 kts | 194° |
| 2026-04-26 02:30 | -35.42952 | 150.38743 | 37981 ft | 449 kts | 194° |
| 2026-04-26 02:30 | -35.45990 | 150.37830 | 38140 ft | 448 kts | 194° |
| 2026-04-26 02:30 | -35.49012 | 150.36923 | 38214 ft | 447 kts | 194° |
| 2026-04-26 02:31 | -35.55066 | 150.35101 | 38231 ft | 450 kts | 194° |
| 2026-04-26 02:31 | -35.61171 | 150.33262 | 38228 ft | 453 kts | 194° |
| 2026-04-26 02:32 | -35.67261 | 150.31424 | 38227 ft | 455 kts | 194° |
| 2026-04-26 02:32 | -35.73414 | 150.29564 | 38220 ft | 456 kts | 194° |
| 2026-04-26 02:33 | -35.79569 | 150.27700 | 38227 ft | 455 kts | 194° |
| 2026-04-26 02:33 | -35.85714 | 150.25835 | 38224 ft | 454 kts | 194° |
| 2026-04-26 02:34 | -35.91846 | 150.23970 | 38226 ft | 453 kts | 194° |
| 2026-04-26 02:34 | -35.97954 | 150.22111 | 38219 ft | 451 kts | 194° |
| 2026-04-26 02:35 | -36.04035 | 150.20258 | 38227 ft | 449 kts | 194° |
| 2026-04-26 02:35 | -36.10093 | 150.18409 | 38225 ft | 448 kts | 194° |
| 2026-04-26 02:36 | -36.16139 | 150.16560 | 38223 ft | 447 kts | 194° |
| 2026-04-26 02:36 | -36.22175 | 150.14712 | 38222 ft | 447 kts | 194° |
| 2026-04-26 02:37 | -36.28208 | 150.12862 | 38226 ft | 447 kts | 194° |
| 2026-04-26 02:37 | -36.34251 | 150.11006 | 38224 ft | 448 kts | 195° |
| 2026-04-26 02:38 | -36.40302 | 150.09145 | 38226 ft | 448 kts | 195° |
| 2026-04-26 02:38 | -36.46323 | 150.07289 | 38226 ft | 449 kts | 195° |
| 2026-04-26 02:39 | -36.52399 | 150.05414 | 38224 ft | 450 kts | 195° |
| 2026-04-26 02:39 | -36.58490 | 150.03531 | 38221 ft | 451 kts | 195° |
| 2026-04-26 02:40 | -36.64590 | 150.01642 | 38219 ft | 452 kts | 195° |
| 2026-04-26 02:40 | -36.70704 | 149.99746 | 38220 ft | 453 kts | 195° |
| 2026-04-26 02:41 | -36.76825 | 149.97844 | 38221 ft | 453 kts | 195° |
| 2026-04-26 02:41 | -36.82946 | 149.95939 | 38215 ft | 454 kts | 195° |
| 2026-04-26 02:42 | -36.89072 | 149.94030 | 38225 ft | 453 kts | 195° |
| 2026-04-26 02:42 | -36.95193 | 149.92119 | 38214 ft | 453 kts | 195° |
| 2026-04-26 02:43 | -37.04365 | 149.89249 | 38214 ft | 453 kts | 195° |
| 2026-04-26 02:43 | -37.10471 | 149.87334 | 38222 ft | 452 kts | 195° |
| 2026-04-26 02:44 | -37.16575 | 149.85417 | 38211 ft | 452 kts | 195° |
| 2026-04-26 02:44 | -37.21639 | 149.83824 | 38216 ft | 451 kts | 195° |
| 2026-04-26 02:45 | -37.27724 | 149.81907 | 38210 ft | 451 kts | 195° |
| 2026-04-26 02:45 | -37.33806 | 149.79987 | 38204 ft | 450 kts | 195° |
| 2026-04-26 02:46 | -37.39879 | 149.78067 | 38214 ft | 450 kts | 195° |
| 2026-04-26 02:46 | -37.45949 | 149.76144 | 38215 ft | 450 kts | 195° |
| 2026-04-26 02:47 | -37.52021 | 149.74215 | 38206 ft | 450 kts | 195° |
| 2026-04-26 02:47 | -37.58087 | 149.72287 | 38212 ft | 450 kts | 195° |
| 2026-04-26 02:48 | -37.64141 | 149.70248 | 38207 ft | 450 kts | 197° |
| 2026-04-26 02:48 | -37.70155 | 149.68034 | 38206 ft | 450 kts | 198° |
| 2026-04-26 02:49 | -37.76134 | 149.65816 | 38208 ft | 451 kts | 198° |
| 2026-04-26 02:49 | -37.82202 | 149.63583 | 38205 ft | 452 kts | 198° |
| 2026-04-26 02:50 | -37.88242 | 149.61370 | 38208 ft | 452 kts | 198° |
| 2026-04-26 02:50 | -37.94249 | 149.59170 | 38205 ft | 453 kts | 198° |
| 2026-04-26 02:51 | -38.00301 | 149.56949 | 38203 ft | 453 kts | 198° |
| 2026-04-26 02:51 | -38.06356 | 149.54722 | 38209 ft | 453 kts | 198° |
| 2026-04-26 02:52 | -38.12410 | 149.52492 | 38204 ft | 453 kts | 198° |
| 2026-04-26 02:52 | -38.18465 | 149.50257 | 38204 ft | 453 kts | 198° |
| 2026-04-26 02:53 | -38.24516 | 149.48020 | 38201 ft | 453 kts | 198° |
| 2026-04-26 02:53 | -38.30562 | 149.45781 | 38201 ft | 453 kts | 198° |
| 2026-04-26 02:54 | -38.36609 | 149.43538 | 38201 ft | 452 kts | 198° |
| 2026-04-26 02:54 | -38.42650 | 149.41293 | 38203 ft | 452 kts | 198° |
| 2026-04-26 02:55 | -38.48692 | 149.39044 | 38198 ft | 452 kts | 198° |
| 2026-04-26 02:55 | -38.54725 | 149.36793 | 38198 ft | 452 kts | 198° |
| 2026-04-26 02:56 | -38.60758 | 149.34540 | 38198 ft | 452 kts | 198° |
| 2026-04-26 02:56 | -38.66787 | 149.32284 | 38199 ft | 451 kts | 198° |
| 2026-04-26 02:57 | -38.72816 | 149.30023 | 38199 ft | 451 kts | 198° |
| 2026-04-26 02:57 | -38.78845 | 149.27759 | 38201 ft | 452 kts | 199° |
| 2026-04-26 02:58 | -38.84876 | 149.25490 | 38198 ft | 452 kts | 199° |
| 2026-04-26 02:58 | -38.90906 | 149.23218 | 38195 ft | 452 kts | 199° |
| 2026-04-26 02:59 | -38.96935 | 149.20941 | 38198 ft | 452 kts | 199° |
| 2026-04-26 02:59 | -39.02968 | 149.18659 | 38194 ft | 452 kts | 199° |
| 2026-04-26 03:00 | -39.08996 | 149.16376 | 38197 ft | 452 kts | 199° |
| 2026-04-26 03:00 | -39.15021 | 149.14088 | 38202 ft | 452 kts | 199° |
| 2026-04-26 03:01 | -39.21053 | 149.11795 | 38198 ft | 452 kts | 199° |
| 2026-04-26 03:01 | -39.27084 | 149.09497 | 38195 ft | 452 kts | 199° |
| 2026-04-26 03:02 | -39.33066 | 149.07215 | 38197 ft | 451 kts | 199° |
| 2026-04-26 03:02 | -39.39087 | 149.04913 | 38193 ft | 451 kts | 199° |
| 2026-04-26 03:03 | -39.45105 | 149.02607 | 38191 ft | 451 kts | 199° |
| 2026-04-26 03:03 | -39.51117 | 149.00301 | 38196 ft | 451 kts | 199° |
| 2026-04-26 03:04 | -39.57127 | 148.97990 | 38193 ft | 450 kts | 199° |
| 2026-04-26 03:04 | -39.63133 | 148.95677 | 38190 ft | 450 kts | 200° |
| 2026-04-26 03:05 | -39.69128 | 148.93353 | 38189 ft | 450 kts | 200° |
| 2026-04-26 03:05 | -39.75119 | 148.91034 | 38188 ft | 449 kts | 200° |
| 2026-04-26 03:06 | -39.81104 | 148.88718 | 38192 ft | 448 kts | 200° |
| 2026-04-26 03:06 | -39.87081 | 148.86400 | 38184 ft | 448 kts | 200° |
| 2026-04-26 03:07 | -39.93053 | 148.84079 | 38186 ft | 447 kts | 200° |
| 2026-04-26 03:07 | -39.99014 | 148.81758 | 38190 ft | 447 kts | 200° |
| 2026-04-26 03:08 | -40.04972 | 148.79435 | 38182 ft | 447 kts | 200° |
| 2026-04-26 03:08 | -40.10922 | 148.77110 | 38182 ft | 446 kts | 200° |
| 2026-04-26 03:09 | -40.16863 | 148.74783 | 38192 ft | 445 kts | 200° |
| 2026-04-26 03:09 | -40.22797 | 148.72454 | 38176 ft | 445 kts | 200° |
| 2026-04-26 03:10 | -40.28678 | 148.70142 | 38179 ft | 444 kts | 200° |
| 2026-04-26 03:10 | -40.34584 | 148.67815 | 38178 ft | 443 kts | 200° |
| 2026-04-26 03:11 | -40.40480 | 148.65488 | 38172 ft | 442 kts | 200° |
| 2026-04-26 03:11 | -40.46367 | 148.63161 | 38169 ft | 442 kts | 200° |
| 2026-04-26 03:12 | -40.52249 | 148.60831 | 38178 ft | 441 kts | 200° |
| 2026-04-26 03:12 | -40.58130 | 148.58497 | 38165 ft | 441 kts | 200° |
| 2026-04-26 03:13 | -40.63998 | 148.56164 | 38167 ft | 441 kts | 200° |
| 2026-04-26 03:13 | -40.69869 | 148.53826 | 38166 ft | 440 kts | 200° |
| 2026-04-26 03:14 | -40.75735 | 148.51486 | 38160 ft | 440 kts | 200° |
| 2026-04-26 03:14 | -40.81626 | 148.49129 | 37686 ft | 447 kts | 200° |
| 2026-04-26 03:15 | -40.84592 | 148.47941 | 37178 ft | 444 kts | 200° |
| 2026-04-26 03:15 | -40.87540 | 148.46760 | 36636 ft | 442 kts | 200° |
| 2026-04-26 03:15 | -40.90480 | 148.45582 | 36057 ft | 441 kts | 200° |
| 2026-04-26 03:15 | -40.93419 | 148.44403 | 35438 ft | 442 kts | 200° |
| 2026-04-26 03:16 | -40.96364 | 148.43219 | 34823 ft | 443 kts | 200° |
| 2026-04-26 03:16 | -40.99314 | 148.42032 | 34180 ft | 444 kts | 200° |
| 2026-04-26 03:16 | -41.02276 | 148.40839 | 33455 ft | 445 kts | 200° |
| 2026-04-26 03:16 | -41.05244 | 148.39643 | 32737 ft | 446 kts | 200° |
| 2026-04-26 03:17 | -41.08209 | 148.38448 | 32072 ft | 444 kts | 200° |
| 2026-04-26 03:17 | -41.11146 | 148.37264 | 31635 ft | 440 kts | 200° |
| 2026-04-26 03:17 | -41.14046 | 148.36092 | 31163 ft | 444 kts | 200° |
| 2026-04-26 03:17 | -41.17046 | 148.34877 | 30666 ft | 444 kts | 200° |
| 2026-04-26 03:18 | -41.19945 | 148.33704 | 30183 ft | 440 kts | 200° |
| 2026-04-26 03:18 | -41.22865 | 148.32522 | 29624 ft | 436 kts | 200° |
| 2026-04-26 03:18 | -41.25750 | 148.31352 | 29111 ft | 431 kts | 200° |
| 2026-04-26 03:18 | -41.28598 | 148.30196 | 28622 ft | 426 kts | 201° |
| 2026-04-26 03:19 | -41.31427 | 148.29047 | 28131 ft | 423 kts | 201° |
| 2026-04-26 03:19 | -41.34223 | 148.27892 | 27639 ft | 418 kts | 202° |
| 2026-04-26 03:19 | -41.36966 | 148.26630 | 27161 ft | 418 kts | 204° |
| 2026-04-26 03:19 | -41.39707 | 148.25287 | 26681 ft | 421 kts | 205° |
| 2026-04-26 03:20 | -41.42448 | 148.23918 | 26191 ft | 419 kts | 205° |
| 2026-04-26 03:20 | -41.45168 | 148.22559 | 25707 ft | 416 kts | 205° |
| 2026-04-26 03:20 | -41.47870 | 148.21215 | 25230 ft | 413 kts | 205° |
| 2026-04-26 03:20 | -41.50554 | 148.19887 | 24767 ft | 411 kts | 205° |
| 2026-04-26 03:21 | -41.53236 | 148.18567 | 24272 ft | 410 kts | 205° |
| 2026-04-26 03:21 | -41.55908 | 148.17250 | 23801 ft | 410 kts | 205° |
| 2026-04-26 03:21 | -41.58585 | 148.15933 | 23241 ft | 409 kts | 205° |
| 2026-04-26 03:21 | -41.61242 | 148.14628 | 22733 ft | 405 kts | 205° |
| 2026-04-26 03:22 | -41.63879 | 148.13334 | 22251 ft | 402 kts | 205° |
| 2026-04-26 03:22 | -41.66495 | 148.12050 | 21771 ft | 399 kts | 205° |
| 2026-04-26 03:22 | -41.69092 | 148.10771 | 21319 ft | 397 kts | 205° |
| 2026-04-26 03:22 | -41.71677 | 148.09495 | 20850 ft | 395 kts | 205° |
| 2026-04-26 03:23 | -41.74247 | 148.08225 | 20393 ft | 392 kts | 206° |
| 2026-04-26 03:23 | -41.76800 | 148.06964 | 19938 ft | 390 kts | 206° |
| 2026-04-26 03:23 | -41.79333 | 148.05712 | 19546 ft | 386 kts | 206° |
| 2026-04-26 03:23 | -41.81838 | 148.04474 | 19302 ft | 380 kts | 206° |
| 2026-04-26 03:24 | -41.84308 | 148.03252 | 19083 ft | 380 kts | 206° |
| 2026-04-26 03:24 | -41.86804 | 148.02011 | 18861 ft | 386 kts | 206° |
| 2026-04-26 03:24 | -41.89339 | 148.00750 | 18559 ft | 388 kts | 206° |
| 2026-04-26 03:24 | -41.91862 | 147.99501 | 18155 ft | 385 kts | 206° |
| 2026-04-26 03:25 | -41.94364 | 147.98259 | 17668 ft | 382 kts | 206° |
| 2026-04-26 03:25 | -41.96845 | 147.97024 | 17218 ft | 379 kts | 206° |
| 2026-04-26 03:25 | -41.99305 | 147.95800 | 16764 ft | 375 kts | 206° |
| 2026-04-26 03:25 | -42.01747 | 147.94586 | 16327 ft | 373 kts | 206° |
| 2026-04-26 03:26 | -42.04170 | 147.93379 | 15886 ft | 370 kts | 206° |
| 2026-04-26 03:26 | -42.06573 | 147.92176 | 15468 ft | 369 kts | 206° |
| 2026-04-26 03:26 | -42.08994 | 147.90961 | 15021 ft | 372 kts | 206° |
| 2026-04-26 03:26 | -42.11415 | 147.89753 | 14572 ft | 369 kts | 205° |
| 2026-04-26 03:27 | -42.13793 | 147.88571 | 14149 ft | 359 kts | 206° |
| 2026-04-26 03:27 | -42.16110 | 147.87415 | 13710 ft | 353 kts | 206° |
| 2026-04-26 03:27 | -42.18406 | 147.86263 | 13246 ft | 351 kts | 206° |
| 2026-04-26 03:27 | -42.20686 | 147.85119 | 12819 ft | 348 kts | 206° |
| 2026-04-26 03:28 | -42.22948 | 147.83978 | 12374 ft | 346 kts | 206° |
| 2026-04-26 03:28 | -42.25191 | 147.82851 | 11957 ft | 342 kts | 206° |
| 2026-04-26 03:28 | -42.27413 | 147.81736 | 11538 ft | 339 kts | 206° |
| 2026-04-26 03:28 | -42.29613 | 147.80631 | 11134 ft | 336 kts | 206° |
| 2026-04-26 03:29 | -42.31794 | 147.79534 | 10707 ft | 333 kts | 206° |
| 2026-04-26 03:29 | -42.33950 | 147.78450 | 10317 ft | 330 kts | 206° |
| 2026-04-26 03:29 | -42.36146 | 147.77663 | 9911 ft | 334 kts | 193° |
| 2026-04-26 03:29 | -42.38448 | 147.77347 | 9498 ft | 332 kts | 191° |
| 2026-04-26 03:30 | -42.40738 | 147.77107 | 9101 ft | 329 kts | 191° |
| 2026-04-26 03:30 | -42.43006 | 147.76869 | 8671 ft | 322 kts | 191° |
| 2026-04-26 03:30 | -42.45202 | 147.76626 | 8261 ft | 312 kts | 192° |
| 2026-04-26 03:30 | -42.47330 | 147.76375 | 7884 ft | 302 kts | 192° |
| 2026-04-26 03:31 | -42.49396 | 147.76118 | 7496 ft | 294 kts | 193° |
| 2026-04-26 03:31 | -42.51423 | 147.75858 | 7128 ft | 292 kts | 193° |
| 2026-04-26 03:31 | -42.53449 | 147.75597 | 6758 ft | 292 kts | 193° |
| 2026-04-26 03:31 | -42.55472 | 147.75335 | 6407 ft | 292 kts | 193° |
| 2026-04-26 03:32 | -42.57492 | 147.75070 | 6123 ft | 288 kts | 193° |
| 2026-04-26 03:32 | -42.59451 | 147.74820 | 6022 ft | 280 kts | 193° |
| 2026-04-26 03:32 | -42.61386 | 147.74558 | 5904 ft | 280 kts | 191° |
| 2026-04-26 03:32 | -42.62672 | 147.74390 | 5816 ft | 281 kts | 192° |
| 2026-04-26 03:33 | -42.65265 | 147.74053 | 5649 ft | 277 kts | 193° |
| 2026-04-26 03:33 | -42.66522 | 147.73884 | 5553 ft | 271 kts | 193° |
| 2026-04-26 03:33 | -42.68368 | 147.73644 | 5426 ft | 262 kts | 193° |
| 2026-04-26 03:33 | -42.70169 | 147.73402 | 5207 ft | 256 kts | 193° |
| 2026-04-26 03:34 | -42.71928 | 147.73170 | 5142 ft | 255 kts | 193° |
| 2026-04-26 03:34 | -42.73673 | 147.72941 | 5012 ft | 248 kts | 193° |
| 2026-04-26 03:34 | -42.75393 | 147.72716 | 4749 ft | 249 kts | 193° |
| 2026-04-26 03:34 | -42.77120 | 147.72489 | 4478 ft | 250 kts | 192° |
| 2026-04-26 03:35 | -42.78846 | 147.72262 | 4204 ft | 247 kts | 192° |
| 2026-04-26 03:35 | -42.80534 | 147.72042 | 3972 ft | 240 kts | 192° |
| 2026-04-26 03:35 | -42.82045 | 147.71421 | 3625 ft | 216 kts | 219° |
| 2026-04-26 03:35 | -42.83215 | 147.70261 | 3379 ft | 203 kts | 221° |
| 2026-04-26 03:36 | -42.84352 | 147.69166 | 3120 ft | 196 kts | 222° |
| 2026-04-26 03:36 | -42.85436 | 147.68124 | 2843 ft | 185 kts | 222° |
| 2026-04-26 03:36 | -42.86460 | 147.67137 | 2579 ft | 174 kts | 221° |
| 2026-04-26 03:36 | -42.87382 | 147.66195 | 2495 ft | 159 kts | 230° |
| 2026-04-26 03:37 | -42.88124 | 147.65124 | 2439 ft | 152 kts | 238° |
| 2026-04-26 03:37 | -42.88695 | 147.63930 | 2039 ft | 155 kts | 250° |
| 2026-04-26 03:37 | -42.89028 | 147.62581 | 1746 ft | 144 kts | 263° |
| 2026-04-26 03:37 | -42.89106 | 147.61269 | 1590 ft | 132 kts | 276° |
| 2026-04-26 03:38 | -42.88983 | 147.60015 | 1438 ft | 139 kts | 285° |
| 2026-04-26 03:38 | -42.88695 | 147.58764 | 1274 ft | 138 kts | 294° |
| 2026-04-26 03:38 | -42.88237 | 147.57626 | 1091 ft | 138 kts | 308° |
| 2026-04-26 03:38 | -42.87601 | 147.56620 | 891 ft | 141 kts | 311° |
| 2026-04-26 03:39 | -42.86919 | 147.55667 | 706 ft | 138 kts | 315° |
| 2026-04-26 03:39 | -42.86254 | 147.54768 | 498 ft | 134 kts | 316° |
| 2026-04-26 03:39 | -42.85601 | 147.53871 | 374 ft | 137 kts | 318° |
| 2026-04-26 03:39 | -42.84927 | 147.52964 | 204 ft | 138 kts | 315° |
| 2026-04-26 03:40 | -42.84227 | 147.52003 | 34 ft | 135 kts | 317° |
| 2026-04-26 03:40 | -42.83711 | 147.51307 | 22 ft | 59 kts | 315° |
| 2026-04-26 03:40 | -42.83487 | 147.51004 | 21 ft | 39 kts | 315° |
| 2026-04-26 03:40 | -42.83359 | 147.50828 | 21 ft | 23 kts | 315° |
| 2026-04-26 03:41 | -42.83305 | 147.50676 | 21 ft | 12 kts | 270° |
| 2026-04-26 03:41 | -42.83342 | 147.50609 | 21 ft | 9 kts | 210° |
| 2026-04-26 03:41 | -42.83391 | 147.50557 | 23 ft | 9 kts | 205° |
| 2026-04-26 03:41 | -42.83453 | 147.50584 | 22 ft | 10 kts | 145° |
| 2026-04-26 03:42 | -42.83503 | 147.50657 | 23 ft | 11 kts | 133° |
| 2026-04-26 03:42 | -42.83569 | 147.50688 | 21 ft | 11 kts | 215° |
| 2026-04-26 03:42 | -42.83640 | 147.50676 | 22 ft | 9 kts | 143° |
| 2026-04-26 03:42 | -42.83676 | 147.50706 | 21 ft | 4 kts | 189° |
| 2026-04-26 03:43 | -42.83703 | 147.50677 | 21 ft | 5 kts | 222° |
| 2026-04-26 03:43 | -42.83717 | 147.50658 | 21 ft | 2 kts | 224° |
| 2026-04-26 03:43 | -42.83720 | 147.50655 | 23 ft | 0 kts | 225° |